Date,TemperatureHighF,TemperatureAvgF,TemperatureLowF,DewpointHighF,DewpointAvgF,DewpointLowF,HumidityHigh,HumidityAvg,HumidityLow,PressureMaxIn,PressureMinIn,WindSpeedMaxMPH,WindSpeedAvgMPH,GustSpeedMaxMPH,PrecipitationSumIn
2014-1-1,2.5,-2.8,-7.2,-4.4,-8.7,-12.9,78,75,72,30.57,30.48,5,1,6,0.00
2014-1-2,3.8,-0.9,-7.4,-6.3,-9.5,-14.0,77,66,54,30.58,30.49,5,1,7,0.00
2014-1-3,27.8,19.2,6.7,24.6,14.6,-0.4,92,82,71,30.03,29.50,15,3,15,0.00
2014-1-4,34.6,17.2,-0.8,32.3,10.9,-7.7,92,76,64,30.31,29.47,11,3,13,0.06
2014-1-5,-0.9,-7.7,-17.5,-7.7,-15.2,-25.6,82,69,58,30.45,30.30,11,3,11,0.00
2014-1-6,-15.3,-15.6,-15.7,-20.4,-20.8,-21.0,77,76,76,30.31,30.30,2,0,2,0.00
2014-1-7,4.5,-1.7,-15.3,-5.6,-9.3,-20.6,79,69,61,30.36,30.23,5,0,6,0.00
2014-1-8,2.7,-3.7,-8.6,-6.4,-9.8,-13.3,92,75,64,30.57,30.36,4,0,4,0.00
2014-1-9,19.6,8.6,-9.2,13.7,3.6,-13.8,90,80,65,30.54,29.98,11,2,13,0.00
2014-1-10,29.9,25.1,15.7,28.6,23.6,13.2,95,94,90,29.98,29.51,9,2,9,0.00
2014-1-11,31.4,27.4,24.0,28.4,25.3,22.2,100,92,82,29.72,29.50,7,2,10,0.00
2014-1-12,41.0,34.0,22.6,32.6,28.8,20.3,92,81,70,29.67,29.39,10,1,10,0.00
2014-1-13,35.7,29.4,26.3,31.2,24.1,18.8,92,81,68,29.69,29.51,8,2,10,0.00
2014-1-14,27.9,19.5,8.0,26.0,16.0,3.3,94,86,75,30.17,29.50,10,3,11,0.16
2014-1-15,26.1,10.9,-0.4,21.8,6.6,-4.1,98,82,71,30.21,29.47,9,2,15,0.00
2014-1-16,33.3,19.5,7.1,32.0,13.7,0.2,95,78,61,29.92,29.41,14,4,16,0.03
2014-1-17,13.7,7.4,0.9,4.4,1.1,-3.8,84,75,64,30.11,29.85,9,2,11,0.00
2014-1-18,21.0,15.2,7.8,16.2,11.5,3.9,92,85,78,30.02,29.61,9,2,9,0.11
2014-1-19,38.2,30.5,16.7,30.3,25.2,13.4,90,81,72,29.78,29.47,10,2,11,0.02
2014-1-20,29.6,15.8,-1.8,26.0,9.1,-12.8,88,75,55,30.49,29.73,10,3,11,0.00
2014-1-21,-1.0,-7.4,-12.1,-10.9,-15.3,-18.3,84,68,59,30.54,30.37,7,1,7,0.00
2014-1-22,1.7,-2.1,-6.7,-7.6,-11.3,-14.0,70,64,59,30.57,30.20,13,4,13,0.00
2014-1-23,3.2,-8.6,-15.4,-2.6,-14.5,-20.5,92,75,66,30.83,30.30,9,2,10,0.00
2014-1-24,32.6,23.8,3.3,31.1,17.7,-2.9,95,77,60,30.30,29.53,12,2,14,0.07
2014-1-25,26.4,7.9,3.1,14.9,-3.8,-8.3,82,58,46,29.96,29.59,13,3,14,0.00
2014-1-26,17.6,7.8,-6.6,12.2,1.9,-14.9,89,77,57,30.15,29.44,16,4,20,0.04
2014-1-27,-6.2,-10.5,-15.1,-14.7,-18.5,-22.5,75,67,59,30.53,30.15,16,3,16,0.00
2014-1-28,-0.3,-7.5,-13.8,-7.8,-13.6,-18.6,80,74,65,30.50,30.20,8,1,9,0.00
2014-1-29,32.9,15.3,-3.1,19.4,5.3,-9.3,77,65,51,30.20,29.60,16,2,16,0.03
2014-1-30,30.3,16.7,-2.4,23.1,10.7,-9.0,91,77,63,30.11,29.48,9,2,11,0.20
2014-1-31,10.9,-0.1,-9.2,-0.1,-7.0,-13.8,82,72,60,30.24,30.10,6,1,7,0.01
2014-2-1,22.9,10.6,0.6,14.8,4.3,-5.0,83,76,68,30.28,29.99,7,2,8,0.07
2014-2-2,14.5,3.3,-6.8,3.4,-3.2,-11.1,92,74,56,30.37,30.28,8,1,8,0.00
2014-2-3,17.9,8.0,-0.1,9.7,2.2,-3.6,89,77,64,30.44,30.24,5,1,5,0.00
2014-2-4,10.9,5.6,0.4,2.9,-1.0,-6.0,86,74,62,30.54,30.44,7,1,8,0.00
2014-2-5,4.5,0.8,-4.8,-3.1,-6.2,-9.7,80,72,67,30.60,30.53,7,2,9,0.00
2014-2-6,4.6,-2.7,-10.4,-3.8,-8.4,-14.4,83,76,65,30.56,30.32,8,2,10,0.00
2014-2-7,13.3,4.4,-4.1,3.1,-4.0,-9.4,78,69,50,30.32,30.23,8,1,10,0.00
2014-2-8,15.2,7.1,-3.1,8.8,2.2,-7.0,92,80,72,30.24,30.15,6,0,7,0.00
2014-2-9,11.8,2.5,-5.5,7.5,-4.6,-11.1,83,72,58,30.48,30.23,9,2,10,0.00
2014-2-10,6.7,-3.1,-11.2,-3.5,-9.6,-15.7,82,73,61,30.58,30.48,5,1,5,0.00
2014-2-11,12.3,6.1,-9.0,6.1,-0.6,-13.5,80,73,63,30.56,30.15,12,2,14,0.00
2014-2-12,25.2,18.7,12.4,18.8,14.3,6.2,88,83,75,30.17,29.84,7,1,9,0.03
2014-2-13,30.6,16.6,5.0,27.1,12.1,-0.1,99,82,74,29.86,29.48,14,3,15,0.00
2014-2-14,16.3,7.6,1.5,5.9,1.3,-2.2,85,76,62,30.12,29.79,7,2,7,0.00
2014-2-15,18.0,9.4,-0.1,15.3,5.7,-4.1,90,85,74,30.12,29.85,13,2,13,0.05
2014-2-16,22.0,15.8,5.9,15.1,9.9,2.6,88,77,65,30.30,30.02,14,2,14,0.00
2014-2-17,28.3,23.5,20.3,25.6,20.2,14.7,93,87,73,30.04,29.70,15,2,19,0.17
2014-2-18,41.7,30.9,20.0,29.5,25.0,18.0,94,80,60,29.81,29.58,9,1,10,0.00
2014-2-19,41.4,32.4,23.8,33.7,27.5,21.0,93,82,69,29.86,29.71,8,1,10,0.00
2014-2-20,35.4,32.5,17.9,33.1,29.9,15.9,96,90,79,29.72,29.29,10,1,12,0.59
2014-2-21,17.5,12.4,7.2,15.7,9.6,4.7,93,89,86,29.84,29.33,0,0,0,0.05
2014-2-22,14.6,9.9,4.5,9.4,6.0,1.3,88,84,74,30.21,29.84,5,0,6,0.06
2014-2-23,16.4,9.2,1.8,10.6,4.8,-1.6,86,82,70,30.35,30.21,8,1,8,0.01
2014-2-24,14.6,6.7,-1.9,5.9,1.5,-5.6,86,79,63,30.41,30.34,7,1,7,0.00
2014-2-25,6.7,0.4,-6.5,2.5,-5.5,-13.1,86,76,64,30.44,30.34,8,2,9,0.00
2014-2-26,19.4,3.8,-9.6,11.4,-4.1,-14.8,81,69,54,30.44,29.71,15,3,16,0.00
2014-2-27,0.9,-5.9,-12.6,-12.8,-17.1,-21.2,69,58,47,30.29,30.00,9,2,12,0.00
2014-2-28,15.8,4.3,-9.4,9.5,-2.3,-18.0,81,73,65,30.25,29.99,8,2,8,0.04
2014-3-1,8.9,-0.5,-5.6,2.3,-9.7,-15.7,75,64,53,30.61,30.24,10,3,10,0.00
2014-3-2,2.3,-5.2,-14.3,-9.5,-14.7,-21.7,72,63,52,30.67,30.58,7,1,8,0.00
2014-3-3,10.4,1.2,-10.7,1.5,-6.3,-16.1,80,71,57,30.64,30.33,8,1,9,0.00
2014-3-4,19.9,13.3,7.2,10.5,7.0,1.5,85,76,64,30.36,30.23,6,1,7,0.00
2014-3-5,24.8,17.8,12.1,12.9,9.7,6.6,79,71,59,30.51,30.36,9,1,9,0.00
2014-3-6,26.1,19.2,10.7,21.2,14.5,5.7,88,82,76,30.41,29.87,9,3,16,0.00
2014-3-7,33.8,28.6,22.4,30.5,24.5,18.3,90,85,75,30.22,29.81,9,2,9,0.00
2014-3-8,29.7,22.4,16.2,18.5,15.2,11.5,85,74,49,30.37,30.21,6,1,7,0.00
2014-3-9,44.9,33.1,16.5,35.4,26.2,12.7,88,76,63,30.22,29.68,9,1,11,0.00
2014-3-10,53.5,44.0,37.1,39.2,36.1,32.6,87,74,54,29.72,29.62,6,1,7,0.00
2014-3-11,43.4,38.9,31.5,35.2,28.8,19.5,91,68,47,30.02,29.70,11,2,11,0.01
2014-3-12,31.4,24.5,18.9,21.1,14.1,10.2,77,64,47,30.16,30.02,8,2,9,0.00
2014-3-13,51.2,37.9,18.8,39.6,29.7,13.9,91,73,56,30.06,29.53,7,1,8,0.00
2014-3-14,46.9,38.1,27.9,35.8,30.3,16.9,84,73,60,29.98,29.52,13,3,17,0.00
2014-3-15,30.5,25.9,20.6,17.9,14.7,7.5,79,63,48,30.44,29.97,7,2,8,0.00
2014-3-16,24.7,18.8,10.2,14.4,7.4,0.2,71,61,52,30.53,30.07,11,2,12,0.00
2014-3-17,35.1,28.6,22.3,28.0,22.2,14.4,88,77,70,30.07,29.61,11,3,13,0.05
2014-3-18,36.3,32.3,29.7,29.3,25.6,22.4,94,76,68,29.82,29.65,9,2,11,0.20
2014-3-19,35.7,30.2,26.0,29.4,26.8,23.5,95,88,74,30.02,29.80,10,1,10,0.13
2014-3-20,43.3,33.4,24.9,32.1,27.5,22.4,95,80,58,30.05,29.93,7,1,8,0.00
2014-3-21,44.9,34.3,23.9,36.3,28.7,17.0,88,80,68,30.17,29.75,15,3,15,0.00
2014-3-22,23.7,15.7,8.2,16.9,6.2,1.5,83,66,55,30.56,30.17,11,4,12,0.00
2014-3-23,24.6,16.3,6.5,11.8,7.4,1.8,83,68,53,30.58,30.41,7,1,8,0.00
2014-3-24,31.5,23.3,15.8,28.2,15.4,8.3,92,72,47,30.42,30.15,10,1,12,0.05
2014-3-25,23.2,17.1,9.8,15.9,5.3,-0.8,74,59,47,30.34,30.15,11,3,12,0.00
2014-3-26,39.6,27.1,11.9,28.2,17.8,6.5,84,69,53,30.22,29.62,17,4,19,0.00
2014-3-27,39.4,35.9,30.7,36.6,33.7,28.2,97,92,66,29.75,29.47,10,2,14,0.46
2014-3-28,38.0,32.4,27.7,29.0,21.5,12.9,93,66,44,30.28,29.75,9,2,10,0.00
2014-3-29,42.9,32.5,20.5,28.8,19.6,9.5,81,61,30,30.32,30.10,9,1,10,0.00
2014-3-30,59.8,46.5,35.2,46.8,37.7,28.7,83,72,55,30.11,29.77,13,2,14,0.00
2014-3-31,57.4,47.6,31.0,49.7,40.7,27.6,93,77,67,29.77,29.35,11,3,14,0.01
2014-4-1,35.4,28.6,19.9,29.9,23.2,16.0,94,80,68,30.15,29.44,13,3,15,0.00
2014-4-2,41.3,32.3,20.2,26.6,22.5,16.8,89,68,53,30.24,30.08,9,2,11,0.00
2014-4-3,38.2,33.6,29.8,31.3,28.8,24.9,95,84,59,30.10,29.78,13,3,13,0.32
2014-4-4,40.1,32.4,25.8,32.0,27.8,24.8,96,84,61,30.08,29.71,12,2,12,0.47
2014-4-5,49.4,37.9,25.3,39.5,31.4,22.7,93,78,61,30.15,29.98,11,1,11,0.00
2014-4-6,60.8,49.5,39.1,45.2,38.4,31.9,83,66,50,29.98,29.81,9,2,11,0.00
2014-4-7,58.0,48.9,38.9,44.7,38.9,30.5,97,71,45,29.85,29.75,10,1,12,0.00
2014-4-8,51.4,43.2,34.4,33.4,29.7,26.3,75,60,41,30.01,29.82,10,2,12,0.00
2014-4-11,62.2,56.7,47.6,38.8,35.0,30.3,66,45,32,29.96,29.90,8,1,8,0.00
2014-4-12,55.7,49.7,44.2,47.3,41.5,32.4,88,75,44,29.92,29.70,11,2,11,0.03
2014-4-13,45.2,44.5,44.1,41.8,41.5,41.3,90,89,88,29.79,29.73,6,1,6,0.00
2014-4-14,36.7,32.2,26.7,16.4,10.8,6.5,58,41,29,30.15,30.06,12,4,13,0.00
2014-4-15,37.1,28.6,19.3,19.3,10.0,2.5,70,48,26,30.21,30.09,8,1,8,0.00
2014-4-16,39.1,34.9,32.9,34.0,26.5,18.9,95,72,55,30.10,29.89,9,3,14,0.81
2014-4-17,41.6,33.5,29.1,31.4,28.6,26.0,96,83,62,30.35,29.97,8,2,8,0.05
2014-4-18,50.8,40.0,27.2,34.2,29.7,24.3,93,69,47,30.41,30.21,11,2,12,0.00
2014-4-19,67.0,52.0,42.1,55.5,42.1,30.0,92,70,49,30.22,29.97,21,3,21,0.17
2014-4-20,72.5,61.4,51.2,55.7,51.2,39.5,96,73,34,30.04,29.90,8,1,8,0.06
2014-4-21,67.5,59.0,46.1,56.9,45.0,28.8,96,64,34,30.07,29.83,13,3,13,0.12
2014-4-22,57.9,47.9,37.9,34.3,30.6,27.1,74,53,34,30.14,30.05,9,2,10,0.00
2014-4-23,46.6,42.6,39.5,39.8,33.6,26.5,92,72,48,30.12,29.92,11,2,13,0.24
2014-4-24,44.2,42.1,39.7,43.3,40.2,37.9,100,93,83,29.93,29.68,11,2,11,0.77
2014-4-25,62.5,49.4,36.8,45.2,40.4,33.6,97,74,46,29.94,29.72,10,2,10,0.00
2014-4-26,54.2,45.9,36.3,39.9,34.3,31.8,85,65,46,30.03,29.88,14,2,14,0.02
2014-4-27,46.7,40.7,37.9,41.5,37.7,35.6,96,89,69,29.93,29.61,17,4,18,1.50
2014-4-28,44.3,42.4,40.6,41.7,40.0,38.3,96,91,84,29.70,29.60,18,5,21,0.97
2014-4-29,41.8,36.7,34.1,38.4,35.3,33.0,97,95,85,29.78,29.65,13,3,14,0.78
2014-4-30,44.0,39.2,34.3,40.5,37.5,33.4,97,94,85,29.78,29.74,8,2,11,0.36
2014-5-1,47.9,42.4,37.5,42.2,39.3,36.4,97,89,76,29.85,29.72,8,2,9,0.15
2014-5-2,60.4,49.7,42.7,45.6,41.7,39.1,88,75,51,29.85,29.59,11,1,11,0.00
2014-5-3,59.2,50.8,43.3,39.7,36.1,31.8,79,58,39,29.95,29.70,13,2,14,0.00
2014-5-4,57.4,48.3,37.2,34.7,30.2,24.8,74,51,32,30.14,29.95,8,1,9,0.00
2014-5-5,63.7,56.1,49.4,38.5,34.9,30.5,57,45,34,30.01,29.90,9,1,9,0.00
2014-5-6,64.6,56.1,45.4,41.8,38.4,35.6,74,53,36,29.98,29.77,13,3,13,0.00
2014-5-7,63.0,57.4,50.9,52.2,46.0,38.4,80,65,56,29.79,29.60,14,3,14,0.00
2014-5-8,68.6,57.3,51.1,60.8,54.5,48.6,97,91,74,29.80,29.50,16,1,16,0.38
2014-5-9,58.9,51.9,46.6,58.3,45.0,39.3,98,78,55,29.81,29.49,11,2,11,0.10
2014-5-10,69.8,55.7,42.5,55.2,45.4,37.2,93,71,42,29.90,29.76,13,1,13,0.11
2014-5-11,68.3,59.4,48.3,58.8,54.0,47.2,98,83,64,29.90,29.73,8,1,8,0.24
2014-5-12,59.9,59.7,59.5,58.7,58.2,57.7,96,95,94,29.75,29.73,7,3,7,0.02
2014-5-13,51.8,49.7,45.2,40.2,38.1,36.5,72,64,59,30.20,30.11,10,2,10,0.05
2014-5-14,59.2,49.4,38.2,39.5,33.8,28.3,90,59,34,30.25,30.13,8,1,8,0.01
2014-5-15,48.9,44.7,40.1,33.5,31.7,28.0,73,61,46,30.18,30.11,9,2,9,0.02
2014-5-16,52.7,46.8,40.0,34.9,29.3,23.9,78,53,35,30.13,30.05,7,1,7,0.00
2014-5-17,65.5,54.2,41.3,37.4,31.8,28.0,66,45,26,30.07,29.98,8,1,8,0.00
2014-5-18,72.8,62.8,51.6,44.5,37.2,28.9,56,40,27,30.08,29.95,11,1,11,0.00
2014-5-19,59.5,54.4,51.3,52.5,47.9,40.8,98,81,50,29.99,29.74,11,3,13,0.84
2014-5-20,76.3,62.5,50.1,63.4,56.6,49.3,98,82,53,29.87,29.74,6,0,7,0.16
2014-5-21,65.5,59.8,53.5,57.2,49.3,44.8,87,68,57,30.11,29.81,8,1,8,0.02
2014-5-22,69.5,58.4,45.6,48.3,45.0,40.9,93,64,40,30.20,30.11,6,1,6,0.01
2014-5-23,75.6,64.3,51.2,50.0,46.3,42.4,81,55,32,30.23,30.08,5,0,5,0.01
2014-5-24,80.2,68.4,57.2,52.7,48.4,45.2,70,51,31,30.14,29.99,5,1,8,0.00
2014-5-25,80.0,69.5,55.6,64.1,55.6,46.3,78,62,42,30.04,29.86,5,1,7,0.00
2014-5-26,82.5,73.3,64.2,68.5,65.1,62.0,95,76,55,29.88,29.80,4,0,4,0.01
2014-5-27,73.0,67.5,62.3,68.1,64.8,59.8,96,91,82,29.95,29.81,6,0,6,0.05
2014-5-28,79.5,68.5,58.5,64.2,58.4,54.0,94,73,43,30.05,29.94,5,0,5,0.01
2014-5-29,81.7,70.7,56.9,56.7,51.3,43.4,88,54,27,30.11,30.00,5,0,5,0.00
2014-5-30,86.5,75.5,62.6,66.5,58.2,48.6,77,56,37,30.09,29.96,5,0,5,0.00
2014-5-31,84.4,73.7,68.3,70.2,64.4,55.4,96,74,54,30.02,29.84,10,0,11,0.34
2014-6-1,68.3,66.2,64.2,67.1,65.6,63.3,99,98,96,29.86,29.69,6,0,6,0.19
2014-6-2,78.5,68.5,61.7,67.1,61.9,52.8,99,81,55,29.81,29.64,10,1,10,0.76
2014-6-3,74.3,65.5,56.5,58.2,54.6,51.1,87,69,47,29.96,29.80,4,0,6,0.00
2014-6-4,78.2,69.1,59.2,59.8,56.4,52.7,89,66,43,29.86,29.79,2,0,3,0.00
2014-6-5,77.3,67.8,62.1,62.4,58.7,54.1,91,74,47,29.89,29.79,7,0,7,0.00
2014-6-6,82.8,70.8,59.8,64.8,59.5,52.6,95,71,38,29.92,29.84,3,0,4,0.00
2014-6-7,68.1,55.6,52.4,60.7,54.5,51.5,98,97,77,30.07,29.89,2,0,4,0.00
2014-6-8,70.3,59.9,48.5,59.1,48.8,40.5,99,71,36,30.14,30.03,3,0,4,0.00
2014-6-9,68.5,62.5,57.4,55.7,53.0,48.8,89,71,59,30.05,29.95,1,0,2,0.00
2014-6-10,75.0,65.5,54.1,59.4,54.3,49.9,94,69,43,29.95,29.82,5,0,5,0.00
2014-6-11,79.7,70.5,59.6,62.4,57.2,53.6,86,64,48,29.85,29.60,5,0,5,0.00
2014-6-12,70.4,60.0,54.7,62.8,51.6,47.3,91,74,62,29.96,29.61,7,0,7,0.00
2014-6-13,73.4,62.8,49.1,52.8,48.6,44.1,88,62,41,30.04,29.87,3,0,3,0.00
2014-6-14,66.7,60.2,57.8,58.3,54.7,48.6,95,83,53,29.94,29.68,14,1,14,0.00
2014-6-15,74.2,65.1,56.7,64.8,58.5,55.9,99,81,55,29.81,29.44,9,1,10,0.00
2014-6-16,83.0,70.2,61.8,69.0,60.6,55.6,94,73,47,29.87,29.60,8,1,10,0.00
2014-6-17,80.7,71.4,61.8,69.0,64.3,58.8,92,79,64,29.81,29.64,3,0,3,0.00
2014-6-18,78.6,73.9,68.9,70.7,68.0,66.1,97,82,67,29.88,29.73,7,0,7,0.00
2014-6-19,73.8,68.2,64.2,68.7,65.8,63.3,98,92,78,30.03,29.80,8,1,11,0.00
2014-6-20,82.1,73.3,65.9,70.3,65.2,59.0,99,78,46,29.93,29.77,3,0,3,0.00
2014-6-21,82.0,74.6,67.1,66.6,62.4,57.7,91,68,45,29.88,29.77,3,0,3,0.00
2014-6-22,75.2,69.4,64.0,70.2,64.7,60.1,93,85,73,29.86,29.76,3,0,3,0.00
2014-6-23,79.8,71.9,65.0,70.4,64.1,60.2,97,78,57,29.84,29.77,3,0,3,0.00
2014-6-24,81.5,72.4,63.9,66.4,62.4,59.4,91,72,50,29.91,29.83,3,0,4,0.00
2014-6-25,70.5,64.2,58.4,63.4,58.7,54.5,89,82,71,30.03,29.91,3,0,3,0.00
2014-6-26,79.1,69.2,57.5,70.6,63.7,54.6,97,83,72,30.03,29.84,5,0,7,0.00
2014-6-27,78.9,73.5,68.9,71.3,68.3,65.4,93,84,72,29.86,29.71,4,0,7,0.00
2014-6-28,82.2,73.4,67.8,75.2,69.9,65.8,97,89,75,29.76,29.60,10,1,10,0.00
2014-6-29,81.8,72.8,62.2,70.9,65.6,60.4,97,80,50,29.71,29.63,6,0,8,0.00
2014-6-30,78.5,70.4,63.8,68.8,62.3,55.1,90,76,58,29.67,29.48,6,0,7,0.00
2014-7-1,72.7,65.1,57.6,63.0,57.9,52.1,91,78,63,29.81,29.49,8,0,11,0.00
2014-7-2,72.1,61.9,53.3,53.3,50.7,46.5,92,69,42,30.08,29.80,4,0,4,0.00
2014-7-3,74.0,65.2,56.4,58.0,52.5,48.0,85,66,41,30.18,30.08,2,0,4,0.00
2014-7-4,76.3,67.7,56.3,59.1,55.0,51.1,89,66,44,30.25,30.07,3,0,5,0.00
2014-7-5,80.8,73.4,65.9,69.8,64.5,56.3,85,74,63,30.10,29.82,6,0,6,0.00
2014-7-6,86.2,76.5,68.9,76.2,68.9,62.8,97,79,49,29.84,29.62,5,0,6,0.00
2014-7-7,83.9,71.9,64.0,70.1,64.1,59.8,96,77,53,29.72,29.57,9,0,13,0.00
2014-7-8,74.0,67.5,61.1,62.4,58.2,53.7,96,74,52,29.88,29.61,7,0,7,0.00
2014-7-9,76.3,67.8,57.1,60.2,55.8,52.1,89,66,44,29.99,29.87,2,0,3,0.00
2014-7-10,81.3,71.8,59.8,68.5,61.7,56.6,91,72,54,30.03,29.92,5,0,5,0.00
2014-7-11,78.3,72.1,64.3,73.2,66.5,61.5,96,83,66,29.99,29.89,7,0,7,0.00
2014-7-12,75.4,70.3,66.7,72.8,68.1,64.9,96,93,82,29.97,29.88,3,0,4,0.00
2014-7-13,74.8,68.2,62.0,64.8,57.2,49.7,96,71,44,29.95,29.84,4,0,5,0.00
2014-7-14,62.6,59.6,55.5,55.7,52.1,47.1,93,77,61,30.04,29.85,6,0,6,0.00
2014-7-15,68.5,61.4,54.8,55.0,52.9,51.1,92,75,56,30.08,29.99,4,0,4,0.00
2014-7-16,73.0,64.2,54.2,56.7,53.0,49.2,92,69,45,30.06,29.97,3,0,3,0.00
2014-7-17,76.9,68.1,58.5,62.2,56.5,52.7,86,68,51,30.03,29.96,3,0,3,0.00
2014-7-18,76.6,69.3,59.8,63.5,59.5,55.9,89,72,59,30.02,29.91,6,0,6,0.00
2014-7-19,76.8,71.5,64.5,67.6,63.2,59.5,86,75,66,29.92,29.84,5,0,5,0.00
2014-7-20,83.0,76.7,69.3,70.5,67.2,64.0,86,73,59,29.84,29.75,7,0,7,0.00
2014-7-21,87.5,79.7,73.4,78.5,72.8,67.5,86,79,73,29.86,29.73,5,0,5,0.00
2014-7-22,81.8,77.9,70.8,76.9,67.2,56.8,90,70,50,30.11,29.72,5,0,5,0.00
2014-7-23,78.4,70.9,61.5,60.8,57.4,52.1,88,64,43,30.22,30.10,3,0,3,0.00
2014-7-24,78.3,69.9,61.0,64.5,60.4,55.9,91,73,54,30.13,29.76,7,0,7,0.00
2014-7-25,78.4,71.1,63.4,71.5,66.3,59.8,97,85,75,29.93,29.71,3,0,3,0.00
2014-7-26,83.0,76.3,70.5,72.7,68.6,61.3,94,78,57,29.79,29.71,6,0,6,0.00
2014-7-27,73.0,73.0,73.0,62.8,62.8,62.8,70,70,70,29.76,29.76,0,0,0,0.00
2014-7-29,76.5,73.7,67.7,60.3,58.0,56.6,69,58,53,30.03,29.99,3,0,3,0.00
2014-7-30,78.2,69.4,59.4,64.0,58.8,55.3,91,70,51,30.06,29.98,3,0,4,0.00
2014-7-31,79.2,71.0,61.1,63.2,59.4,55.7,90,68,46,30.01,29.94,2,0,3,0.00
2014-8-1,81.0,72.9,63.5,65.7,62.2,58.3,87,70,51,30.03,29.97,3,0,3,0.00
2014-8-2,83.3,73.2,64.3,67.0,63.4,60.8,92,73,50,30.08,30.01,3,0,5,0.00
2014-8-3,83.6,74.8,65.0,69.2,65.5,61.3,93,74,50,30.08,29.97,3,0,3,0.00
2014-8-4,78.3,72.8,67.0,69.2,65.4,61.3,90,78,65,30.03,29.96,1,0,4,0.00
2014-8-5,76.8,68.8,61.5,65.8,62.0,58.7,93,80,62,30.09,30.01,3,0,4,0.00